createdAt,value
2019-04-22T00:00:26.047Z,14.30
2019-04-22T00:02:24.647Z,14.20
2019-04-22T00:04:43.672Z,14.10
2019-04-22T00:06:56.324Z,14.10
2019-04-22T00:09:03.293Z,14.10
2019-04-22T00:11:04.582Z,14.10
2019-04-22T00:13:14.977Z,14.00
2019-04-22T00:15:08.666Z,14.00
2019-04-22T00:17:19.889Z,14.10
2019-04-22T00:19:24.355Z,14.00
2019-04-22T00:21:25.495Z,14.00
2019-04-22T00:23:26.155Z,14.00
2019-04-22T00:27:37.213Z,13.90
2019-04-22T00:29:50.105Z,13.90
2019-04-22T00:31:45.855Z,13.80
2019-04-22T00:33:45.110Z,13.80
2019-04-22T00:35:54.521Z,13.80
2019-04-22T00:38:04.640Z,13.80
2019-04-22T00:40:03.140Z,13.80
2019-04-22T00:42:09.964Z,13.80
2019-04-22T00:44:15.391Z,13.80
2019-04-22T00:46:19.585Z,13.80
2019-04-22T00:48:23.636Z,13.70
2019-04-22T00:50:25.453Z,13.70
2019-04-22T00:52:24.898Z,13.60
2019-04-22T00:54:28.522Z,13.70
2019-04-22T00:56:28.278Z,13.60
2019-04-22T00:58:36.517Z,13.60
2019-04-22T01:00:37.584Z,13.60
2019-04-22T01:02:47.924Z,13.60
2019-04-22T01:04:49.426Z,13.70
2019-04-22T01:06:51.212Z,13.60
2019-04-22T01:09:02.623Z,13.60
2019-04-22T01:11:04.082Z,13.50
2019-04-22T01:13:04.823Z,13.50
2019-04-22T01:15:07.053Z,13.40
2019-04-22T01:17:06.568Z,13.40
2019-04-22T01:19:14.719Z,13.40
2019-04-22T01:21:24.376Z,13.40
2019-04-22T01:23:19.163Z,13.40
2019-04-22T01:25:19.245Z,13.30
2019-04-22T01:27:20.455Z,13.30
2019-04-22T01:29:21.554Z,13.30
2019-04-22T01:31:18.146Z,13.20
2019-04-22T01:33:24.058Z,13.20
2019-04-22T01:35:34.549Z,13.10
2019-04-22T01:37:44.341Z,13.00
2019-04-22T01:39:49.870Z,13.00
2019-04-22T01:42:01.281Z,12.90
2019-04-22T01:44:05.785Z,12.80
2019-04-22T01:46:02.694Z,12.80
2019-04-22T01:48:05.272Z,12.70
2019-04-22T01:50:16.431Z,12.60
2019-04-22T01:54:22.354Z,12.50
2019-04-22T01:56:23.499Z,12.40
2019-04-22T01:58:23.788Z,12.40
2019-04-22T02:00:32.590Z,12.30
2019-04-22T02:02:39.988Z,12.20
2019-04-22T02:04:48.065Z,12.20
2019-04-22T02:06:43.960Z,12.10
2019-04-22T02:10:54.979Z,12.00
2019-04-22T02:12:54.224Z,12.00
2019-04-22T02:15:12.290Z,12.00
2019-04-22T02:17:05.165Z,12.00
2019-04-22T02:19:14.395Z,11.90
2019-04-22T02:21:09.385Z,11.90
2019-04-22T02:23:30.319Z,11.90
2019-04-22T02:25:24.161Z,11.80
2019-04-22T02:27:29.225Z,11.80
2019-04-22T02:29:32.589Z,11.70
2019-04-22T02:31:43.236Z,11.70
2019-04-22T02:36:03.894Z,11.60
2019-04-22T02:37:45.764Z,11.60
2019-04-22T02:39:47.237Z,11.60
2019-04-22T02:41:51.057Z,11.60
2019-04-22T02:48:18.282Z,11.70
2019-04-22T02:52:15.265Z,11.70
2019-04-22T02:56:27.319Z,11.80
2019-04-22T02:58:32.722Z,11.80
2019-04-22T03:00:29.312Z,11.80
2019-04-22T03:03:03.891Z,11.80
2019-04-22T03:04:28.366Z,11.80
2019-04-22T03:06:36.763Z,11.70
2019-04-22T03:08:47.450Z,11.60
2019-04-22T03:12:48.904Z,11.50
2019-04-22T03:16:50.425Z,11.40
2019-04-22T03:21:07.895Z,11.30
2019-04-22T03:23:19.449Z,11.20
2019-04-22T03:25:43.836Z,11.20
2019-04-22T03:27:19.442Z,11.10
2019-04-22T03:29:10.704Z,11.10
2019-04-22T03:33:44.037Z,11.00
2019-04-22T03:35:44.788Z,11.00
2019-04-22T03:37:53.241Z,10.90
2019-04-22T03:42:07.865Z,10.90
2019-04-22T03:44:07.818Z,10.80
2019-04-22T03:45:51.295Z,10.80
2019-04-22T03:52:16.159Z,10.80
2019-04-22T03:56:36.569Z,10.80
2019-04-22T03:58:16.251Z,10.80
2019-04-22T04:00:34.851Z,10.70
2019-04-22T04:04:47.425Z,10.70
2019-04-22T04:06:50.209Z,10.60
2019-04-22T04:10:47.696Z,10.50
2019-04-22T04:13:00.504Z,10.50
2019-04-22T04:15:05.505Z,10.50
2019-04-22T04:17:08.876Z,10.50
2019-04-22T04:19:07.073Z,10.50
2019-04-22T04:21:20.845Z,10.50
2019-04-22T04:25:35.485Z,10.50
2019-04-22T04:33:22.925Z,10.50
2019-04-22T04:35:40.899Z,10.50
2019-04-22T04:37:44.969Z,10.50
2019-04-22T04:39:44.095Z,10.50
2019-04-22T04:47:57.877Z,10.50
2019-04-22T04:49:57.366Z,10.50
2019-04-22T04:54:13.290Z,10.50
2019-04-22T04:56:10.859Z,10.50
2019-04-22T05:02:24.235Z,10.50
2019-04-22T05:04:25.508Z,10.50
2019-04-22T05:08:40.699Z,10.60
2019-04-22T05:10:42.166Z,10.60
2019-04-22T05:14:38.501Z,10.60
2019-04-22T05:16:46.390Z,10.70
2019-04-22T05:18:44.771Z,10.70
2019-04-22T05:22:44.815Z,10.70
2019-04-22T05:24:50.729Z,10.80
2019-04-22T05:26:56.749Z,10.80
2019-04-22T05:28:57.865Z,10.80
2019-04-22T05:31:06.762Z,10.80
2019-04-22T05:33:08.993Z,10.80
2019-04-22T05:37:14.775Z,10.90
2019-04-22T05:39:21.314Z,10.90
2019-04-22T05:41:30.529Z,10.90
2019-04-22T05:43:27.279Z,11.00
2019-04-22T05:45:33.130Z,11.00
2019-04-22T05:47:38.988Z,11.10
2019-04-22T05:49:43.811Z,11.10
2019-04-22T05:52:05.215Z,11.10
2019-04-22T05:53:54.191Z,11.20
2019-04-22T05:55:58.050Z,11.30
2019-04-22T06:00:06.369Z,11.40
2019-04-22T06:02:20.359Z,11.40
2019-04-22T06:04:09.873Z,11.50
2019-04-22T06:06:16.296Z,11.40
2019-04-22T06:08:22.041Z,11.50
2019-04-22T06:10:39.824Z,11.50
2019-04-22T06:12:23.833Z,11.60
2019-04-22T06:14:26.373Z,11.60
2019-04-22T06:16:31.061Z,11.60
2019-04-22T06:18:35.860Z,11.60
2019-04-22T06:20:51.839Z,11.70
2019-04-22T06:24:49.039Z,11.90
2019-04-22T06:28:54.680Z,11.90
2019-04-22T06:31:06.902Z,12.00
2019-04-22T06:33:04.142Z,12.10
2019-04-22T06:35:15.379Z,12.20
2019-04-22T06:37:12.835Z,12.30
2019-04-22T06:39:14.356Z,12.30
2019-04-22T06:43:35.033Z,12.40
2019-04-22T06:45:23.419Z,12.50
2019-04-22T06:47:52.803Z,12.60
2019-04-22T06:49:35.801Z,12.70
2019-04-22T06:51:40.584Z,12.70
2019-04-22T06:53:40.512Z,12.80
2019-04-22T06:55:48.471Z,12.90
2019-04-22T06:57:43.479Z,13.00
2019-04-22T06:59:51.557Z,13.10
2019-04-22T07:01:59.305Z,13.10
2019-04-22T07:04:01.522Z,13.20
2019-04-22T07:08:25.060Z,13.30
2019-04-22T07:10:15.130Z,13.40
2019-04-22T07:12:11.528Z,13.40
2019-04-22T07:14:09.390Z,13.50
2019-04-22T07:18:46.492Z,13.60
2019-04-22T07:20:31.624Z,13.70
2019-04-22T07:22:38.477Z,13.70
2019-04-22T07:26:43.046Z,14.00
2019-04-22T07:28:37.816Z,14.00
2019-04-22T07:30:44.738Z,14.10
2019-04-22T07:34:52.161Z,14.30
2019-04-22T07:37:25.820Z,14.40
2019-04-22T07:39:01.740Z,14.50
2019-04-22T07:41:08.359Z,14.60
2019-04-22T07:43:15.511Z,14.60
2019-04-22T07:45:23.724Z,14.70
2019-04-22T07:49:26.743Z,14.90
2019-04-22T07:51:30.135Z,15.00
2019-04-22T07:53:27.808Z,15.10
2019-04-22T07:55:32.527Z,15.20
2019-04-22T07:59:45.591Z,15.40
2019-04-22T08:01:42.284Z,15.50
2019-04-22T08:04:05.258Z,15.60
2019-04-22T08:05:58.864Z,15.60
2019-04-22T08:08:02.678Z,15.70
2019-04-22T08:10:18.894Z,15.80
2019-04-22T08:11:59.293Z,16.00
2019-04-22T08:13:58.806Z,16.10
2019-04-22T08:18:12.796Z,16.20
2019-04-22T08:20:19.246Z,16.30
2019-04-22T08:22:15.660Z,16.40
2019-04-22T08:24:25.293Z,16.50
2019-04-22T08:26:30.361Z,16.60
2019-04-22T08:28:30.309Z,16.70
2019-04-22T08:30:33.747Z,16.80
2019-04-22T08:34:37.055Z,17.00
2019-04-22T08:36:54.001Z,17.10
2019-04-22T08:39:02.250Z,17.20
2019-04-22T08:40:56.898Z,17.30
2019-04-22T08:43:11.524Z,17.40
2019-04-22T08:47:10.954Z,17.60
2019-04-22T08:49:07.151Z,17.70
2019-04-22T08:51:13.557Z,17.80
2019-04-22T08:53:19.953Z,17.90
2019-04-22T08:55:27.149Z,18.00
2019-04-22T08:57:31.611Z,18.10
2019-04-22T08:59:24.748Z,18.20
2019-04-22T09:01:29.646Z,18.30
2019-04-22T09:03:30.360Z,18.40
2019-04-22T09:05:48.641Z,18.50
2019-04-22T09:09:44.575Z,18.80
2019-04-22T09:16:00.199Z,19.00
2019-04-22T09:18:06.794Z,19.20
2019-04-22T09:20:02.859Z,19.30
2019-04-22T09:22:05.275Z,19.40
2019-04-22T09:24:10.596Z,19.50
2019-04-22T09:26:15.456Z,19.60
2019-04-22T09:28:15.282Z,19.60
2019-04-22T09:30:25.916Z,19.70
2019-04-22T09:32:26.698Z,19.80
2019-04-22T09:34:27.694Z,19.90
2019-04-22T09:38:38.160Z,20.00
2019-04-22T09:40:34.275Z,20.10
2019-04-22T09:42:45.511Z,20.20
2019-04-22T09:44:47.757Z,20.30
2019-04-22T09:46:47.327Z,20.30
2019-04-22T09:49:01.677Z,20.40
2019-04-22T09:50:52.498Z,20.50
2019-04-22T09:53:02.364Z,20.60
2019-04-22T09:55:07.495Z,20.70
2019-04-22T09:57:09.233Z,20.80
2019-04-22T09:59:07.565Z,20.80
2019-04-22T10:01:22.769Z,20.90
2019-04-22T10:03:20.628Z,21.10
2019-04-22T10:05:21.159Z,21.10
2019-04-22T10:07:27.006Z,21.20
2019-04-22T10:13:40.611Z,21.50
2019-04-22T10:15:45.485Z,21.50
2019-04-22T10:17:49.437Z,21.60
2019-04-22T10:19:53.707Z,21.60
2019-04-22T10:22:16.677Z,21.60
2019-04-22T10:26:07.200Z,21.80
2019-04-22T10:28:08.815Z,21.90
2019-04-22T10:30:08.935Z,22.00
2019-04-22T10:32:14.814Z,22.00
2019-04-22T10:34:05.384Z,22.00
2019-04-22T10:35:55.440Z,22.10
2019-04-22T10:37:58.889Z,22.10
2019-04-22T10:40:06.502Z,22.10
2019-04-22T10:42:08.800Z,22.10
2019-04-22T10:44:13.016Z,22.20
2019-04-22T10:46:17.967Z,22.20
2019-04-22T10:48:24.121Z,22.20
2019-04-22T10:50:34.769Z,22.30
2019-04-22T10:52:37.174Z,22.30
2019-04-22T10:54:39.216Z,22.40
2019-04-22T10:56:43.271Z,22.50
2019-04-22T10:58:46.687Z,22.50
2019-04-22T11:00:50.820Z,22.60
2019-04-22T11:02:53.818Z,22.70
2019-04-22T11:04:58.449Z,22.60
2019-04-22T11:07:03.834Z,22.60
2019-04-22T11:09:06.254Z,22.70
2019-04-22T11:11:21.438Z,22.70
2019-04-22T11:13:11.211Z,22.70
2019-04-22T11:15:15.923Z,22.80
2019-04-22T11:17:19.581Z,22.80
2019-04-22T11:19:23.461Z,22.80
2019-04-22T11:21:25.609Z,22.90
2019-04-22T11:23:29.217Z,22.90
2019-04-22T11:25:33.955Z,23.00
2019-04-22T11:27:37.109Z,23.10
2019-04-22T11:29:41.330Z,23.00
2019-04-22T11:31:44.371Z,23.10
2019-04-22T11:33:48.297Z,23.10
2019-04-22T11:35:52.020Z,23.20
2019-04-22T11:37:54.939Z,23.30
2019-04-22T11:40:06.831Z,23.40
2019-04-22T11:42:02.400Z,23.40
2019-04-22T11:44:05.420Z,23.50
2019-04-22T11:46:09.331Z,23.50
2019-04-22T11:48:13.237Z,23.50
2019-04-22T11:50:15.782Z,23.50
2019-04-22T11:52:20.415Z,23.60
2019-04-22T11:54:22.971Z,23.90
2019-04-22T11:56:27.138Z,23.80
2019-04-22T11:58:30.764Z,23.90
2019-04-22T12:00:35.017Z,23.90
2019-04-22T12:02:38.715Z,23.90
2019-04-22T12:04:40.700Z,23.90
2019-04-22T12:06:44.256Z,24.00
2019-04-22T12:08:47.872Z,23.90
2019-04-22T12:10:56.360Z,24.00
2019-04-22T12:12:55.589Z,24.00
2019-04-22T12:14:58.721Z,24.00
2019-04-22T12:17:01.876Z,24.10
2019-04-22T12:19:05.346Z,24.00
2019-04-22T12:21:09.016Z,24.00
2019-04-22T12:23:12.746Z,24.10
2019-04-22T12:25:30.033Z,24.20
2019-04-22T12:27:22.022Z,24.20
2019-04-22T12:29:24.818Z,24.20
2019-04-22T12:31:27.380Z,24.20
2019-04-22T12:33:31.701Z,24.20
2019-04-22T12:35:35.011Z,24.20
2019-04-22T12:37:46.763Z,24.20
2019-04-22T12:39:43.331Z,24.20
2019-04-22T12:41:46.364Z,24.30
2019-04-22T12:43:49.237Z,24.20
2019-04-22T12:45:52.454Z,24.40
2019-04-22T12:47:56.062Z,24.50
2019-04-22T12:50:08.982Z,24.50
2019-04-22T12:52:03.154Z,24.60
2019-04-22T12:54:06.842Z,24.70
2019-04-22T12:56:10.977Z,24.70
2019-04-22T12:58:15.687Z,24.90
2019-04-22T13:00:17.777Z,24.90
2019-04-22T13:02:21.213Z,24.90
2019-04-22T13:04:25.223Z,24.80
2019-04-22T13:06:28.073Z,25.00
2019-04-22T13:08:33.948Z,25.00
2019-04-22T13:10:45.693Z,25.10
2019-04-22T13:12:39.759Z,25.10
2019-04-22T13:14:43.540Z,25.30
2019-04-22T13:16:47.305Z,25.30
2019-04-22T13:18:56.586Z,25.30
2019-04-22T13:20:54.775Z,25.20
2019-04-22T13:22:58.777Z,25.10
2019-04-22T13:25:02.066Z,25.20
2019-04-22T13:27:06.674Z,25.20
2019-04-22T13:29:10.612Z,25.20
2019-04-22T13:31:13.794Z,25.20
2019-04-22T13:33:16.870Z,25.20
2019-04-22T13:35:22.030Z,25.00
2019-04-22T13:37:25.245Z,25.00
2019-04-22T13:39:27.264Z,25.20
2019-04-22T13:41:37.421Z,25.20
2019-04-22T13:43:34.741Z,25.30
2019-04-22T13:45:38.641Z,25.40
2019-04-22T13:48:07.285Z,25.40
2019-04-22T13:54:14.196Z,25.40
2019-04-22T13:56:16.405Z,25.30
2019-04-22T13:58:14.677Z,25.40
2019-04-22T14:00:05.708Z,25.40
2019-04-22T14:02:12.839Z,25.50
2019-04-22T14:04:22.632Z,25.80
2019-04-22T14:06:25.119Z,26.00
2019-04-22T14:08:29.187Z,26.10
2019-04-22T14:10:32.217Z,26.20
2019-04-22T14:12:36.975Z,26.10
2019-04-22T14:14:41.945Z,26.10
2019-04-22T14:16:42.796Z,26.10
2019-04-22T14:18:46.470Z,26.30
2019-04-22T14:20:51.031Z,26.20
2019-04-22T14:22:54.665Z,26.40
2019-04-22T14:24:56.703Z,26.70
2019-04-22T14:27:19.537Z,26.60
2019-04-22T14:29:04.154Z,26.70
2019-04-22T14:31:08.460Z,26.60
2019-04-22T14:33:11.884Z,26.90
2019-04-22T14:35:15.290Z,27.00
2019-04-22T14:37:18.586Z,27.40
2019-04-22T14:39:22.002Z,27.10
2019-04-22T14:41:46.680Z,27.30
2019-04-22T14:43:57.810Z,27.10
2019-04-22T14:46:12.335Z,26.90
2019-04-22T14:48:02.711Z,26.70
2019-04-22T14:50:00.583Z,26.70
2019-04-22T14:52:03.502Z,26.80
2019-04-22T14:54:05.328Z,27.00
2019-04-22T14:55:50.472Z,27.00
2019-04-22T14:57:53.401Z,27.10
2019-04-22T14:59:57.857Z,27.10
2019-04-22T15:02:01.399Z,27.10
2019-04-22T15:04:05.361Z,27.10
2019-04-22T15:06:08.397Z,27.40
2019-04-22T15:08:11.035Z,27.30
2019-04-22T15:10:15.702Z,27.10
2019-04-22T15:12:30.033Z,27.40
2019-04-22T15:14:23.335Z,27.50
2019-04-22T15:16:30.148Z,27.40
2019-04-22T15:18:41.922Z,27.70
2019-04-22T15:20:52.344Z,27.90
2019-04-22T15:22:54.649Z,28.00
2019-04-22T15:24:56.872Z,27.60
2019-04-22T15:27:00.751Z,27.60
2019-04-22T15:29:05.166Z,27.60
2019-04-22T15:31:07.118Z,27.80
2019-04-22T15:33:11.693Z,28.00
2019-04-22T15:35:15.407Z,28.10
2019-04-22T15:37:18.083Z,28.30
2019-04-22T15:39:20.996Z,28.50
2019-04-22T15:41:24.922Z,28.40
2019-04-22T15:43:30.939Z,28.60
2019-04-22T15:45:32.627Z,28.80
2019-04-22T15:47:35.072Z,29.40
2019-04-22T15:49:39.984Z,29.80
2019-04-22T15:51:42.894Z,29.80
2019-04-22T15:53:45.536Z,29.90
2019-04-22T15:55:50.296Z,29.90
2019-04-22T15:57:53.912Z,30.10
2019-04-22T16:00:10.532Z,30.00
2019-04-22T16:02:00.722Z,30.10
2019-04-22T16:04:02.915Z,30.00
2019-04-22T16:06:06.309Z,30.30
2019-04-22T16:08:10.843Z,30.30
2019-04-22T16:10:15.743Z,29.80
2019-04-22T16:12:26.183Z,29.40
2019-04-22T16:14:29.676Z,29.10
2019-04-22T16:16:26.222Z,29.20
2019-04-22T16:18:30.697Z,28.70
2019-04-22T16:20:34.342Z,28.30
2019-04-22T16:22:43.250Z,28.00
2019-04-22T16:24:52.037Z,27.90
2019-04-22T16:27:02.332Z,27.80
2019-04-22T16:29:09.417Z,27.60
2019-04-22T16:31:15.434Z,27.80
2019-04-22T16:33:21.647Z,28.00
2019-04-22T16:35:28.780Z,28.20
2019-04-22T16:37:37.041Z,28.40
2019-04-22T16:39:45.457Z,28.60
2019-04-22T16:41:48.645Z,28.60
2019-04-22T16:43:56.221Z,28.80
2019-04-22T16:46:03.301Z,28.80
2019-04-22T16:48:09.755Z,29.00
2019-04-22T16:50:18.072Z,29.00
2019-04-22T16:52:25.836Z,29.40
2019-04-22T16:54:32.824Z,29.30
2019-04-22T16:56:37.212Z,29.30
2019-04-22T16:58:40.887Z,29.40
2019-04-22T17:00:43.101Z,29.40
2019-04-22T17:03:22.573Z,29.20
2019-04-22T17:05:31.498Z,29.50
2019-04-22T17:07:34.125Z,28.90
2019-04-22T17:09:37.596Z,29.30
2019-04-22T17:11:41.107Z,29.30
2019-04-22T17:13:45.951Z,29.50
2019-04-22T17:15:49.421Z,29.20
2019-04-22T17:17:51.773Z,29.40
2019-04-22T17:19:55.533Z,29.30
2019-04-22T17:21:59.558Z,29.30
2019-04-22T17:24:03.466Z,28.90
2019-04-22T17:26:06.323Z,29.00
2019-04-22T17:28:09.810Z,29.20
2019-04-22T17:30:12.562Z,29.20
2019-04-22T17:32:19.225Z,29.10
2019-04-22T17:34:19.501Z,28.50
2019-04-22T17:36:24.230Z,28.20
2019-04-22T17:38:33.926Z,28.30
2019-04-22T17:40:49.202Z,28.30
2019-04-22T17:42:50.612Z,28.00
2019-04-22T17:45:12.380Z,27.60
2019-04-22T17:47:04.001Z,27.10
2019-04-22T17:49:29.689Z,27.40
2019-04-22T17:51:33.167Z,27.20
2019-04-22T17:53:34.851Z,27.00
2019-04-22T17:55:40.435Z,26.90
2019-04-22T17:57:32.557Z,26.50
2019-04-22T17:59:39.301Z,26.20
2019-04-22T18:01:46.729Z,26.00
2019-04-22T18:03:33.872Z,25.80
2019-04-22T18:05:39.128Z,25.50
2019-04-22T18:07:57.349Z,25.20
2019-04-22T18:10:24.221Z,25.10
2019-04-22T18:12:05.397Z,24.90
2019-04-22T18:14:28.680Z,24.40
2019-04-22T18:16:08.138Z,24.40
2019-04-22T18:18:12.380Z,24.00
2019-04-22T18:20:13.027Z,23.70
2019-04-22T18:22:12.590Z,23.20
2019-04-22T18:24:13.058Z,23.10
2019-04-22T18:26:23.001Z,23.00
2019-04-22T18:28:31.579Z,22.70
2019-04-22T18:30:24.307Z,22.40
2019-04-22T18:32:30.818Z,22.20
2019-04-22T18:34:34.241Z,22.20
2019-04-22T18:36:38.801Z,22.00
2019-04-22T18:38:56.463Z,22.00
2019-04-22T18:40:45.954Z,21.80
2019-04-22T18:43:00.202Z,21.60
2019-04-22T18:45:11.505Z,21.60
2019-04-22T18:47:00.941Z,21.50
2019-04-22T18:49:07.780Z,21.40
2019-04-22T18:51:24.698Z,21.20
2019-04-22T18:53:30.081Z,20.80
2019-04-22T18:55:41.399Z,20.90
2019-04-22T18:57:46.510Z,20.60
2019-04-22T18:59:44.697Z,20.60
2019-04-22T19:01:41.971Z,20.50
2019-04-22T19:03:55.259Z,20.50
2019-04-22T19:06:20.329Z,20.30
2019-04-22T19:08:21.448Z,20.30
2019-04-22T19:10:25.461Z,20.20
2019-04-22T19:12:28.611Z,20.10
2019-04-22T19:14:24.180Z,20.00
2019-04-22T19:16:36.570Z,20.20
2019-04-22T19:18:34.751Z,20.20
2019-04-22T19:20:39.329Z,20.10
2019-04-22T19:22:43.829Z,20.10
2019-04-22T19:24:40.336Z,19.90
2019-04-22T19:26:55.974Z,19.90
2019-04-22T19:28:49.740Z,19.90
2019-04-22T19:30:56.340Z,19.80
2019-04-22T19:33:02.160Z,19.60
2019-04-22T19:34:57.327Z,19.60
2019-04-22T19:37:02.986Z,19.50
2019-04-22T19:39:04.254Z,19.40
2019-04-22T19:41:13.453Z,19.40
2019-04-22T19:43:15.417Z,19.40
2019-04-22T19:45:15.757Z,19.20
2019-04-22T19:51:39.914Z,19.10
2019-04-22T19:53:37.050Z,19.00
2019-04-22T19:55:39.041Z,18.90
2019-04-22T19:57:42.292Z,18.80
2019-04-22T19:59:46.473Z,18.70
2019-04-22T20:01:54.190Z,18.70
2019-04-22T20:06:18.101Z,18.60
2019-04-22T20:08:21.507Z,18.60
2019-04-22T20:10:20.589Z,18.50
2019-04-22T20:12:21.823Z,18.60
2019-04-22T20:14:28.092Z,18.50
2019-04-22T20:16:27.266Z,18.40
2019-04-22T20:18:40.518Z,18.40
2019-04-22T20:20:40.235Z,18.40
2019-04-22T20:22:41.708Z,18.30
2019-04-22T20:24:29.227Z,18.20
2019-04-22T20:26:49.992Z,18.10
2019-04-22T20:28:52.710Z,17.90
2019-04-22T20:30:55.487Z,18.10
2019-04-22T20:32:56.608Z,17.90
2019-04-22T20:35:02.606Z,17.70
2019-04-22T20:37:10.641Z,17.90
2019-04-22T20:39:06.630Z,17.80
2019-04-22T20:41:08.954Z,17.70
2019-04-22T20:43:22.027Z,17.60
2019-04-22T20:45:23.094Z,17.60
2019-04-22T20:47:20.697Z,17.60
2019-04-22T20:49:30.881Z,17.50
2019-04-22T20:51:31.050Z,17.50
2019-04-22T20:53:38.013Z,17.30
2019-04-22T20:55:36.492Z,17.30
2019-04-22T20:57:48.337Z,17.40
2019-04-22T20:59:47.202Z,17.30
2019-04-22T21:01:43.080Z,17.30
2019-04-22T21:03:41.904Z,17.20
2019-04-22T21:05:47.147Z,17.20
2019-04-22T21:08:06.316Z,17.20
2019-04-22T21:09:57.803Z,17.30
2019-04-22T21:12:02.166Z,17.40
2019-04-22T21:14:06.427Z,17.20
2019-04-22T21:16:20.470Z,17.10
2019-04-22T21:18:13.627Z,17.30
2019-04-22T21:20:26.027Z,17.00
2019-04-22T21:22:26.090Z,17.10
2019-04-22T21:24:23.662Z,16.80
2019-04-22T21:26:30.804Z,16.90
2019-04-22T21:28:41.824Z,16.90
2019-04-22T21:30:37.292Z,17.00
2019-04-22T21:32:39.096Z,16.80
2019-04-22T21:34:52.683Z,16.70
2019-04-22T21:36:57.545Z,16.60
2019-04-22T21:38:53.278Z,16.40
2019-04-22T21:40:54.853Z,16.40
2019-04-22T21:43:13.367Z,16.30
2019-04-22T21:44:55.673Z,16.30
2019-04-22T21:47:16.314Z,16.40
2019-04-22T21:49:16.739Z,16.30
2019-04-22T21:51:19.306Z,16.20
2019-04-22T21:53:25.187Z,16.20
2019-04-22T21:55:26.471Z,16.10
2019-04-22T21:57:52.678Z,16.00
2019-04-22T21:59:34.630Z,16.00
2019-04-22T22:01:49.803Z,16.00
2019-04-22T22:03:50.624Z,16.00
2019-04-22T22:05:44.315Z,15.90
2019-04-22T22:07:40.018Z,15.80
2019-04-22T22:09:59.529Z,15.80
2019-04-22T22:11:58.917Z,15.80
2019-04-22T22:14:10.305Z,15.80
2019-04-22T22:16:07.735Z,15.90
2019-04-22T22:18:10.081Z,15.90
2019-04-22T22:20:11.048Z,15.90
2019-04-22T22:22:39.816Z,15.80
2019-04-22T22:24:27.327Z,15.70
2019-04-22T22:26:33.603Z,15.70
2019-04-22T22:28:45.018Z,15.70
2019-04-22T22:30:47.895Z,15.60
2019-04-22T22:32:40.669Z,15.70
2019-04-22T22:34:39.441Z,15.60
2019-04-22T22:36:36.361Z,15.50
2019-04-22T22:38:41.594Z,15.50
2019-04-22T22:40:34.111Z,15.40
2019-04-22T22:42:39.982Z,15.40
2019-04-22T22:44:43.220Z,15.30
2019-04-22T22:46:59.122Z,15.20
2019-04-22T22:49:07.275Z,15.20
2019-04-22T22:51:05.281Z,15.20
2019-04-22T22:53:20.717Z,15.10
2019-04-22T22:55:20.123Z,15.10
2019-04-22T22:57:22.823Z,15.00
2019-04-22T22:59:23.645Z,15.00
2019-04-22T23:01:31.744Z,14.90
2019-04-22T23:03:45.921Z,14.80
2019-04-22T23:05:37.612Z,14.70
2019-04-22T23:07:42.773Z,14.60
2019-04-22T23:09:36.702Z,14.50
2019-04-22T23:12:02.265Z,14.60
2019-04-22T23:13:49.936Z,14.60
2019-04-22T23:15:44.324Z,14.70
2019-04-22T23:17:36.966Z,14.60
2019-04-22T23:19:41.997Z,14.60
2019-04-22T23:21:45.878Z,14.50
2019-04-22T23:24:05.754Z,14.50
2019-04-22T23:26:04.561Z,14.30
2019-04-22T23:28:41.841Z,14.30
2019-04-22T23:30:41.000Z,14.30
2019-04-22T23:32:56.560Z,14.20
2019-04-22T23:35:04.331Z,14.10
2019-04-22T23:37:11.832Z,14.10
2019-04-22T23:39:22.699Z,14.00
2019-04-22T23:41:39.235Z,14.10
2019-04-22T23:43:32.653Z,14.00
2019-04-22T23:45:43.466Z,13.90
2019-04-22T23:47:35.042Z,13.90
2019-04-22T23:49:48.387Z,13.80
2019-04-22T23:52:02.823Z,13.70
2019-04-22T23:54:10.590Z,13.80
2019-04-22T23:56:00.275Z,13.80
2019-04-22T23:58:05.080Z,13.70
